Time;durP1;ratioP1;P1;durP2;ratioP2;P2;SDS_P1;SDS_P2;PMS_P1;PMS_P2;Temp;Humidity;BMP_temperature;BMP_pressure;BME280_temperature;BME280_humidity;BME280_pressure;Samples;Min_cycle;Max_cycle;Signal;HPM_P1;HPM_P2
2022/04/17 00:00:15;;;;;;;5.88;3.60;;;10.20;43.50;;;;;;5133191;27;20027;-63
2022/04/17 00:02:41;;;;;;;7.65;4.50;;;10.20;43.60;;;;;;5132762;27;20398;-63
2022/04/17 00:05:08;;;;;;;5.93;3.75;;;10.10;43.90;;;;;;5133304;27;20109;-63
2022/04/17 00:07:34;;;;;;;8.68;4.30;;;10.10;44.10;;;;;;5114920;27;20027;-63
2022/04/17 00:10:02;;;;;;;5.95;3.78;;;10.00;44.10;;;;;;5132336;27;20023;-63
2022/04/17 00:12:28;;;;;;;7.03;4.22;;;10.00;44.40;;;;;;5133340;27;20080;-63
2022/04/17 00:14:55;;;;;;;8.45;4.35;;;9.90;44.50;;;;;;5132493;27;20023;-62
2022/04/17 00:17:21;;;;;;;8.70;4.35;;;9.90;44.40;;;;;;5132896;27;20432;-63
2022/04/17 00:19:47;;;;;;;6.35;3.88;;;9.90;44.50;;;;;;5132268;27;20061;-63
2022/04/17 00:22:14;;;;;;;10.70;4.15;;;9.80;44.70;;;;;;5133274;27;20019;-64
2022/04/17 00:24:41;;;;;;;8.10;4.28;;;9.80;44.90;;;;;;5132628;27;20038;-64
2022/04/17 00:27:06;;;;;;;5.93;3.80;;;9.70;45.00;;;;;;5132794;27;20038;-63
2022/04/17 00:29:32;;;;;;;7.57;4.18;;;9.70;45.00;;;;;;5132928;27;20448;-62
2022/04/17 00:31:58;;;;;;;7.00;4.00;;;9.70;45.10;;;;;;5132285;27;20030;-65
2022/04/17 00:34:24;;;;;;;9.55;3.97;;;9.70;45.00;;;;;;5131882;27;20155;-63
2022/04/17 00:36:50;;;;;;;6.30;3.88;;;9.70;44.90;;;;;;5131126;27;20110;-64
2022/04/17 00:39:16;;;;;;;7.40;4.18;;;9.70;44.90;;;;;;5132104;27;20102;-63
2022/04/17 00:41:42;;;;;;;6.55;3.72;;;9.60;45.10;;;;;;5132224;27;20051;-64
2022/04/17 00:44:12;;;;;;;7.47;3.83;;;9.50;45.20;;;;;;5132748;27;20031;-64
2022/04/17 00:46:39;;;;;;;6.07;3.63;;;9.50;45.30;;;;;;5132777;27;20039;-63
2022/04/17 00:49:06;;;;;;;6.63;4.03;;;9.60;45.30;;;;;;5118469;27;20024;-64
2022/04/17 00:51:32;;;;;;;7.47;3.80;;;9.60;45.20;;;;;;5139554;27;20027;-64
2022/04/17 00:54:00;;;;;;;6.22;4.10;;;9.60;45.20;;;;;;5120666;27;20051;-63
2022/04/17 00:56:26;;;;;;;8.18;3.90;;;9.60;45.30;;;;;;5139138;27;20042;-64
2022/04/17 00:58:52;;;;;;;6.68;3.58;;;9.60;45.30;;;;;;5138837;27;20035;-63
2022/04/17 01:01:18;;;;;;;10.80;4.13;;;9.70;45.30;;;;;;5139496;27;20092;-63
2022/04/17 01:03:44;;;;;;;7.10;4.15;;;9.60;45.30;;;;;;5139064;27;20433;-64
2022/04/17 01:06:10;;;;;;;6.90;4.47;;;9.60;45.30;;;;;;5139888;27;20090;-64
2022/04/17 01:08:41;;;;;;;11.23;4.30;;;9.50;45.30;;;;;;5139350;27;20016;-62
2022/04/17 01:11:13;;;;;;;6.68;4.30;;;9.40;45.40;;;;;;5138764;27;20019;-63
2022/04/17 01:13:42;;;;;;;7.03;3.85;;;9.30;45.70;;;;;;5139651;27;20030;-63
2022/04/17 01:16:08;;;;;;;7.10;3.70;;;9.30;45.60;;;;;;5139131;27;20113;-63
2022/04/17 01:18:53;;;;;;;8.15;4.43;;;9.40;45.80;;;;;;5139425;27;20065;-63
2022/04/17 01:21:19;;;;;;;6.85;3.72;;;9.30;45.70;;;;;;5120645;27;20027;-64
2022/04/17 01:29:15;;;;;;;7.13;3.88;;;9.30;46.00;;;;;;5134324;27;20371;-63
2022/04/17 01:31:41;;;;;;;10.55;3.97;;;9.20;45.80;;;;;;5133649;27;20019;-63
2022/04/17 01:34:07;;;;;;;7.32;3.92;;;9.20;46.00;;;;;;5133213;27;20023;-63
2022/04/17 01:36:33;;;;;;;9.73;4.57;;;9.10;46.10;;;;;;5134569;27;20035;-63
2022/04/17 01:38:58;;;;;;;6.35;3.92;;;9.10;46.20;;;;;;5133472;27;20110;-63
2022/04/17 01:41:24;;;;;;;6.63;3.97;;;9.20;46.20;;;;;;5133298;27;20058;-63
2022/04/17 01:43:50;;;;;;;9.68;3.90;;;9.20;46.20;;;;;;5133095;27;20023;-64
2022/04/17 01:46:15;;;;;;;8.15;4.07;;;9.10;46.40;;;;;;5133779;27;20083;-64
2022/04/17 01:48:41;;;;;;;6.25;3.97;;;9.00;46.40;;;;;;5115168;27;20031;-64
2022/04/17 01:51:07;;;;;;;7.35;3.72;;;9.10;46.30;;;;;;5114393;27;20053;-63
2022/04/17 01:53:33;;;;;;;10.63;4.65;;;9.00;46.50;;;;;;5133778;27;20016;-63
2022/04/17 01:56:02;;;;;;;5.97;4.03;;;9.00;46.50;;;;;;5135190;27;20042;-63
2022/04/17 01:58:28;;;;;;;9.38;3.45;;;9.00;47.20;;;;;;5134491;27;20029;-62
2022/04/17 02:00:53;;;;;;;8.00;4.03;;;9.00;46.60;;;;;;5134538;27;20024;-64
2022/04/17 02:03:19;;;;;;;8.48;4.05;;;9.00;46.60;;;;;;5112674;27;20472;-63
2022/04/17 02:05:45;;;;;;;6.28;3.58;;;9.00;46.70;;;;;;5130125;27;20031;-63
2022/04/17 02:08:13;;;;;;;9.63;4.30;;;9.00;46.70;;;;;;5129568;27;20674;-63
2022/04/17 02:10:39;;;;;;;6.50;3.53;;;9.00;46.70;;;;;;5129778;27;20050;-63
2022/04/17 02:13:04;;;;;;;8.52;4.18;;;9.00;46.60;;;;;;5129580;27;20495;-63
2022/04/17 02:15:30;;;;;;;6.97;3.90;;;9.10;46.60;;;;;;5130066;27;20455;-63
2022/04/17 02:17:56;;;;;;;8.30;4.00;;;9.00;46.50;;;;;;5129579;27;20410;-63
2022/04/17 02:20:21;;;;;;;7.75;4.28;;;9.00;46.70;;;;;;5129594;27;20031;-63
2022/04/17 02:22:47;;;;;;;8.05;4.07;;;9.00;46.80;;;;;;5129768;27;20073;-63
2022/04/17 02:25:13;;;;;;;6.50;4.07;;;8.90;46.90;;;;;;5129220;27;20024;-63
2022/04/17 02:27:38;;;;;;;8.52;3.92;;;8.90;46.90;;;;;;5130415;27;20062;-63
2022/04/17 02:30:05;;;;;;;8.25;4.07;;;8.90;47.10;;;;;;5129612;27;20041;-65
2022/04/17 02:32:31;;;;;;;6.70;3.78;;;8.90;47.20;;;;;;5129782;27;20055;-63
2022/04/17 02:34:56;;;;;;;6.18;4.00;;;8.90;47.10;;;;;;5110027;27;20436;-64
2022/04/17 02:37:22;;;;;;;7.75;3.67;;;8.90;47.10;;;;;;5127611;27;20035;-63
2022/04/17 02:39:48;;;;;;;6.00;4.13;;;8.90;47.20;;;;;;5129425;27;20532;-64
2022/04/17 02:42:13;;;;;;;8.25;3.90;;;8.90;47.20;;;;;;5091529;28;20117;-63
2022/04/17 02:44:39;;;;;;;8.00;3.97;;;8.90;47.10;;;;;;5093182;28;20383;-63
2022/04/17 02:49:49;;;;;;;;;;;8.90;47.00;;;;;;5094091;28;20072;-63
2022/04/17 02:52:14;;;;;;;6.85;3.85;;;8.90;47.30;;;;;;5093128;28;19904;-63
2022/04/17 02:54:41;;;;;;;6.00;3.60;;;8.90;47.10;;;;;;5093658;28;20474;-63
2022/04/17 02:57:07;;;;;;;5.88;3.75;;;8.90;47.10;;;;;;5092505;28;20121;-63
2022/04/17 02:59:32;;;;;;;6.05;4.00;;;8.80;47.30;;;;;;5093824;28;20060;-63
2022/04/17 03:07:34;;;;;;;6.32;3.72;;;8.70;47.70;;;;;;5093538;28;20089;-63
2022/04/17 03:10:02;;;;;;;6.95;4.22;;;8.70;47.80;;;;;;5092776;28;20061;-63
2022/04/17 03:12:46;;;;;;;6.32;3.88;;;8.70;47.80;;;;;;5092460;28;20393;-63
2022/04/17 03:15:12;;;;;;;8.98;4.10;;;8.60;47.90;;;;;;5092980;28;20096;-63
2022/04/17 03:17:38;;;;;;;9.77;4.25;;;8.60;48.00;;;;;;5092901;28;20481;-63
2022/04/17 03:20:04;;;;;;;9.80;3.83;;;8.60;48.00;;;;;;5092618;28;20454;-66
2022/04/17 03:22:32;;;;;;;7.20;4.25;;;8.60;48.10;;;;;;5091849;28;20111;-63
2022/04/17 03:25:00;;;;;;;8.05;4.30;;;8.50;48.10;;;;;;5092373;28;20073;-63
2022/04/17 03:27:26;;;;;;;6.20;3.92;;;8.50;48.20;;;;;;5093145;28;20115;-63
2022/04/17 03:29:51;;;;;;;8.00;4.35;;;8.50;48.30;;;;;;5093156;28;20114;-63
2022/04/17 03:32:17;;;;;;;7.22;4.22;;;8.50;48.40;;;;;;5092859;28;20031;-63
2022/04/17 03:34:42;;;;;;;9.80;4.35;;;8.50;48.40;;;;;;5093234;28;20024;-63
2022/04/17 03:37:08;;;;;;;7.40;3.80;;;8.50;48.50;;;;;;5092388;28;20028;-63
2022/04/17 03:39:34;;;;;;;6.40;3.88;;;8.50;48.60;;;;;;5091460;28;20031;-63
2022/04/17 03:42:00;;;;;;;9.13;4.07;;;8.40;48.60;;;;;;5120268;27;20357;-63
2022/04/17 03:44:26;;;;;;;7.88;4.05;;;8.40;48.60;;;;;;5115267;27;20095;-64
2022/04/17 03:46:52;;;;;;;10.40;4.28;;;8.40;48.80;;;;;;5130749;27;20335;-64
2022/04/17 03:49:18;;;;;;;8.35;4.50;;;8.50;48.80;;;;;;5132426;27;20035;-64
2022/04/17 03:51:44;;;;;;;8.63;4.07;;;8.50;48.80;;;;;;5133719;27;20421;-63
2022/04/17 03:54:10;;;;;;;8.60;4.07;;;8.50;48.80;;;;;;5133159;27;20019;-64
2022/04/17 03:56:36;;;;;;;7.13;3.90;;;8.40;48.80;;;;;;5133562;27;20073;-64
2022/04/17 03:59:02;;;;;;;7.43;4.57;;;8.40;48.90;;;;;;5114322;27;20065;-64
2022/04/17 04:01:28;;;;;;;7.68;4.30;;;8.40;49.00;;;;;;5133310;27;20199;-64
2022/04/17 04:03:55;;;;;;;9.90;4.32;;;8.40;49.10;;;;;;5115372;27;20061;-63
2022/04/17 04:06:21;;;;;;;7.55;4.18;;;8.40;49.20;;;;;;5132952;27;20075;-63
2022/04/17 04:08:50;;;;;;;9.60;4.40;;;8.40;49.30;;;;;;5133328;27;20031;-63
2022/04/17 04:11:17;;;;;;;6.65;3.85;;;8.40;49.20;;;;;;5132703;27;20026;-63
2022/04/17 04:13:43;;;;;;;7.18;4.00;;;8.30;49.40;;;;;;5114919;27;20023;-63
2022/04/17 04:16:09;;;;;;;8.82;4.88;;;8.30;49.40;;;;;;5132673;27;20076;-63
2022/04/17 04:18:35;;;;;;;7.88;4.25;;;8.30;49.50;;;;;;5133204;27;20030;-63
2022/04/17 04:21:01;;;;;;;9.10;4.65;;;8.30;49.70;;;;;;5132563;27;20027;-63
2022/04/17 04:23:30;;;;;;;9.60;4.38;;;8.40;49.60;;;;;;5114608;27;20110;-62
2022/04/17 04:25:56;;;;;;;7.72;4.65;;;8.40;49.50;;;;;;5097585;27;20119;-63
2022/04/17 04:28:34;;;;;;;7.43;4.40;;;8.40;49.50;;;;;;5097159;27;20051;-63
2022/04/17 04:31:00;;;;;;;6.30;4.07;;;8.40;49.60;;;;;;5113897;27;20076;-64
2022/04/17 04:33:26;;;;;;;10.63;5.07;;;8.40;49.60;;;;;;5114633;27;20072;-65
2022/04/17 04:35:52;;;;;;;8.30;4.38;;;8.40;49.60;;;;;;5133221;27;20035;-63
2022/04/17 04:38:17;;;;;;;8.45;4.45;;;8.50;49.60;;;;;;5130742;27;20169;-64
2022/04/17 04:40:43;;;;;;;7.63;4.20;;;8.50;49.60;;;;;;5114327;27;20110;-63
2022/04/17 04:43:09;;;;;;;9.02;4.68;;;8.40;49.50;;;;;;5132422;27;20447;-63
2022/04/17 04:49:29;;;;;;;9.75;4.75;;;8.40;49.70;;;;;;5131051;28;20535;-64
2022/04/17 04:51:05;;;;;;;7.30;4.47;;;8.40;49.90;;;;;;5128713;27;20114;-64
2022/04/17 04:53:31;;;;;;;13.00;4.82;;;8.40;49.90;;;;;;5131586;27;20102;-63
2022/04/17 04:55:56;;;;;;;11.85;4.85;;;8.40;49.80;;;;;;5114388;28;20037;-63
2022/04/17 04:58:22;;;;;;;8.27;4.53;;;8.50;49.80;;;;;;5132187;28;20075;-64
2022/04/17 05:00:48;;;;;;;7.95;4.55;;;8.50;49.70;;;;;;5114151;28;20023;-64
2022/04/17 05:03:13;;;;;;;8.43;4.60;;;8.60;49.70;;;;;;5131946;28;20460;-63
2022/04/17 05:05:39;;;;;;;8.07;4.57;;;8.50;49.70;;;;;;5132494;28;20030;-63
2022/04/17 05:08:05;;;;;;;9.30;4.30;;;8.50;49.60;;;;;;5131915;27;20075;-63
2022/04/17 05:10:30;;;;;;;8.38;5.03;;;8.60;49.70;;;;;;5132291;28;20464;-63
2022/04/17 05:12:56;;;;;;;8.55;4.40;;;8.60;49.70;;;;;;5132682;27;20395;-63
2022/04/17 05:15:25;;;;;;;7.85;4.43;;;8.60;49.70;;;;;;5113604;28;20608;-62
2022/04/17 05:17:50;;;;;;;10.65;4.78;;;8.70;49.70;;;;;;5132433;28;20391;-62
2022/04/17 05:20:16;;;;;;;6.93;4.35;;;8.60;49.60;;;;;;5131346;28;20027;-62
2022/04/17 05:22:44;;;;;;;11.57;5.00;;;8.70;50.00;;;;;;5114518;28;20029;-63
2022/04/17 05:25:28;;;;;;;8.30;4.20;;;8.70;49.40;;;;;;5113479;28;20023;-63
2022/04/17 05:27:54;;;;;;;9.10;4.60;;;8.70;49.20;;;;;;5113684;28;20036;-61
2022/04/17 05:30:19;;;;;;;7.72;4.50;;;8.70;49.10;;;;;;5111414;28;20051;-61
2022/04/17 05:35:29;;;;;;;;;;;8.80;49.10;;;;;;5133846;27;20447;-61
2022/04/17 05:37:54;;;;;;;6.97;4.45;;;8.90;49.10;;;;;;5135150;27;19962;-61
2022/04/17 05:40:20;;;;;;;14.25;4.80;;;8.90;49.10;;;;;;5116097;27;20445;-61
2022/04/17 05:42:46;;;;;;;9.30;4.90;;;8.80;49.10;;;;;;5134940;27;20403;-62
2022/04/17 05:45:11;;;;;;;9.75;4.57;;;8.90;49.10;;;;;;5134715;27;20118;-61
2022/04/17 05:47:37;;;;;;;7.95;4.85;;;8.90;49.00;;;;;;5116955;27;20034;-62
2022/04/17 05:50:05;;;;;;;8.10;4.60;;;9.00;48.90;;;;;;5116348;27;20071;-62
2022/04/17 05:52:31;;;;;;;9.60;4.35;;;9.00;48.80;;;;;;5135237;27;20476;-63
2022/04/17 05:54:57;;;;;;;9.13;4.57;;;9.10;48.80;;;;;;5134835;27;20094;-61
2022/04/17 05:57:23;;;;;;;10.38;4.72;;;9.10;48.60;;;;;;5134440;27;20050;-61
2022/04/17 05:59:49;;;;;;;14.52;4.88;;;9.20;48.40;;;;;;5134629;27;20027;-61
2022/04/17 06:02:15;;;;;;;10.25;4.45;;;9.20;48.10;;;;;;5134478;27;20027;-61
2022/04/17 06:04:41;;;;;;;8.52;4.65;;;9.30;48.00;;;;;;5135031;27;20095;-62
2022/04/17 06:07:08;;;;;;;8.20;4.65;;;9.40;47.90;;;;;;5134206;27;20031;-62
2022/04/17 06:09:34;;;;;;;11.13;4.75;;;9.50;47.70;;;;;;5116312;27;20191;-61
2022/04/17 06:12:00;;;;;;;7.28;4.70;;;9.50;47.30;;;;;;5131927;27;20045;-62
2022/04/17 06:14:26;;;;;;;8.80;4.25;;;9.60;47.10;;;;;;5132976;27;20019;-61
2022/04/17 06:16:52;;;;;;;6.85;4.20;;;9.60;46.90;;;;;;5134265;27;20043;-62
2022/04/17 06:19:17;;;;;;;8.48;4.53;;;9.70;46.80;;;;;;5133806;27;20027;-61
2022/04/17 06:21:43;;;;;;;8.40;4.45;;;9.70;46.70;;;;;;5115834;27;20031;-62
2022/04/17 06:24:08;;;;;;;7.22;4.43;;;9.70;46.60;;;;;;5134317;27;20043;-61
2022/04/17 06:26:35;;;;;;;7.00;4.65;;;9.80;46.50;;;;;;5133629;27;20035;-63
2022/04/17 06:29:05;;;;;;;9.13;4.65;;;9.80;46.30;;;;;;5134033;27;20034;-61
2022/04/17 06:31:31;;;;;;;7.72;4.47;;;9.90;46.30;;;;;;5133717;27;20031;-62
2022/04/17 06:33:58;;;;;;;8.93;4.63;;;10.00;45.90;;;;;;5115731;27;20044;-61
2022/04/17 06:36:24;;;;;;;8.68;4.38;;;9.90;45.70;;;;;;5115361;27;20039;-61
2022/04/17 06:38:49;;;;;;;7.35;4.22;;;9.90;45.60;;;;;;5134184;27;20421;-62
2022/04/17 06:41:15;;;;;;;10.25;4.20;;;9.90;45.50;;;;;;5133514;27;20053;-61
2022/04/17 06:43:41;;;;;;;8.25;4.32;;;10.00;45.30;;;;;;5134001;27;20042;-62
2022/04/17 06:46:07;;;;;;;9.65;4.40;;;10.10;44.90;;;;;;5133655;27;20396;-62
2022/04/17 06:48:32;;;;;;;8.80;4.43;;;10.10;44.60;;;;;;5115135;27;20083;-62
2022/04/17 06:50:58;;;;;;;5.97;3.80;;;10.00;43.90;;;;;;5115242;27;20054;-61
2022/04/17 06:53:24;;;;;;;9.02;4.15;;;10.00;43.50;;;;;;5132969;27;20523;-63
2022/04/17 06:55:52;;;;;;;7.65;4.07;;;10.10;43.60;;;;;;5132982;27;20031;-63
2022/04/17 06:58:19;;;;;;;6.50;4.00;;;10.10;44.10;;;;;;5133342;27;20035;-64
2022/04/17 07:00:45;;;;;;;6.75;3.85;;;10.20;44.10;;;;;;5114826;27;20053;-63
2022/04/17 07:03:13;;;;;;;10.23;3.78;;;10.30;43.70;;;;;;5133138;27;20028;-63
2022/04/17 07:05:39;;;;;;;6.20;3.67;;;10.50;43.00;;;;;;5133712;27;20031;-63
2022/04/17 07:08:06;;;;;;;5.32;3.33;;;10.50;42.70;;;;;;5133286;27;20092;-63
2022/04/17 07:10:34;;;;;;;7.50;3.75;;;10.70;43.00;;;;;;5132914;27;20027;-62
2022/04/17 07:13:00;;;;;;;7.95;4.68;;;10.90;42.90;;;;;;5133386;27;20043;-63
2022/04/17 07:15:25;;;;;;;10.25;4.90;;;12.20;43.70;;;;;;5133251;27;20098;-63
2022/04/17 07:17:53;;;;;;;8.90;5.03;;;16.20;39.60;;;;;;5132840;27;20085;-62
2022/04/17 07:20:19;;;;;;;6.15;3.78;;;20.00;33.60;;;;;;5132581;27;20089;-63
2022/04/17 07:22:47;;;;;;;6.90;4.20;;;23.20;29.50;;;;;;5132203;27;20019;-63
2022/04/17 07:25:13;;;;;;;8.45;4.00;;;26.00;26.70;;;;;;5132759;27;20026;-64
2022/04/17 07:27:41;;;;;;;4.97;3.70;;;28.30;25.00;;;;;;5131851;27;20053;-63
2022/04/17 07:30:13;;;;;;;6.63;4.20;;;30.20;22.90;;;;;;5131392;27;20042;-62
2022/04/17 07:32:41;;;;;;;6.38;3.70;;;31.70;22.20;;;;;;5131784;27;20038;-64
2022/04/17 07:35:08;;;;;;;5.97;3.60;;;32.90;21.40;;;;;;5114292;27;20092;-62
2022/04/17 07:37:35;;;;;;;7.50;3.60;;;33.50;21.20;;;;;;5131704;27;20071;-62
2022/04/17 07:40:07;;;;;;;4.40;3.30;;;34.80;20.90;;;;;;5112826;27;20039;-62
2022/04/17 07:42:33;;;;;;;3.80;3.23;;;35.80;20.70;;;;;;5131760;27;20047;-63
2022/04/17 07:44:59;;;;;;;5.22;3.30;;;36.40;19.70;;;;;;5132336;27;20662;-62
2022/04/17 07:47:24;;;;;;;7.80;3.88;;;37.20;19.30;;;;;;5095897;27;20091;-62
2022/04/17 07:49:51;;;;;;;6.78;3.78;;;37.60;18.60;;;;;;5112877;27;20046;-60
2022/04/17 07:52:17;;;;;;;62.90;6.85;;;37.30;18.70;;;;;;5131370;27;20031;-60
2022/04/17 07:54:43;;;;;;;4.97;3.28;;;36.90;17.90;;;;;;5132707;27;20080;-61
2022/04/17 07:57:13;;;;;;;7.53;3.70;;;37.40;18.50;;;;;;5132097;27;20039;-61
2022/04/17 07:59:40;;;;;;;5.57;3.83;;;37.50;18.30;;;;;;5132422;27;20049;-61
2022/04/17 08:02:21;;;;;;;5.43;3.78;;;38.60;18.40;;;;;;5114040;27;20031;-63
2022/04/17 08:04:50;;;;;;;4.75;4.07;;;39.50;18.20;;;;;;5132444;27;20076;-61
2022/04/17 08:07:16;;;;;;;8.30;3.70;;;40.40;18.00;;;;;;5113105;27;20047;-61
2022/04/17 08:09:41;;;;;;;7.97;7.25;;;41.30;17.80;;;;;;5132214;27;20494;-61
2022/04/17 08:12:07;;;;;;;5.10;4.30;;;41.60;17.60;;;;;;5130517;27;20373;-60
2022/04/17 08:14:33;;;;;;;11.50;4.07;;;42.30;17.20;;;;;;5131900;27;20460;-60
2022/04/17 08:16:59;;;;;;;4.70;3.42;;;42.20;16.80;;;;;;5131301;27;20023;-59
2022/04/17 08:19:25;;;;;;;7.38;4.30;;;41.90;17.00;;;;;;5113217;27;20260;-60
2022/04/17 08:21:54;;;;;;;5.00;2.83;;;42.20;17.00;;;;;;5131441;27;20083;-60
2022/04/17 08:24:19;;;;;;;5.03;3.63;;;42.40;16.80;;;;;;5130382;27;20034;-60
2022/04/17 08:26:45;;;;;;;6.28;3.58;;;40.40;16.70;;;;;;5130793;27;20035;-60
2022/04/17 08:29:11;;;;;;;4.28;3.42;;;40.80;17.10;;;;;;5131358;27;20054;-61
2022/04/17 08:31:36;;;;;;;6.22;3.50;;;41.70;17.00;;;;;;5112134;27;20408;-60
2022/04/17 08:34:03;;;;;;;6.38;2.58;;;41.70;16.70;;;;;;5130540;27;20031;-62
2022/04/17 08:36:28;;;;;;;6.28;4.18;;;40.80;15.70;;;;;;5113076;27;20050;-60
2022/04/17 08:38:54;;;;;;;6.65;3.40;;;40.20;15.90;;;;;;5130776;27;20464;-60
2022/04/17 08:41:21;;;;;;;4.10;2.60;;;39.00;15.90;;;;;;5131141;27;20407;-60
2022/04/17 08:43:47;;;;;;;3.92;2.47;;;37.80;15.80;;;;;;5130509;27;20130;-60
2022/04/17 08:46:13;;;;;;;4.13;2.60;;;38.10;16.20;;;;;;5131925;27;20055;-60
2022/04/17 08:48:39;;;;;;;4.78;2.83;;;38.30;16.20;;;;;;5131164;28;20376;-60
2022/04/17 08:51:07;;;;;;;3.95;2.55;;;37.90;16.30;;;;;;5132123;27;20031;-60
2022/04/17 08:53:34;;;;;;;3.30;2.35;;;36.90;15.90;;;;;;5131719;28;20027;-61
2022/04/17 08:56:00;;;;;;;6.28;2.33;;;36.40;16.20;;;;;;5131688;27;20027;-60
2022/04/17 08:58:26;;;;;;;4.10;2.08;;;34.50;16.40;;;;;;5131086;28;20113;-60
2022/04/17 09:00:52;;;;;;;5.30;3.00;;;32.00;17.00;;;;;;5131585;28;20031;-60
2022/04/17 09:03:18;;;;;;;4.13;1.75;;;29.90;17.90;;;;;;5131288;28;20391;-63
2022/04/17 09:05:44;;;;;;;3.85;2.28;;;28.00;18.50;;;;;;5131432;28;20092;-62
2022/04/17 09:08:13;;;;;;;5.32;2.40;;;26.50;19.20;;;;;;5113160;28;20447;-60
2022/04/17 09:10:39;;;;;;;5.30;3.20;;;24.90;20.00;;;;;;5134390;27;20168;-61
2022/04/17 09:13:05;;;;;;;4.75;3.30;;;23.40;20.50;;;;;;5117418;27;20412;-61
2022/04/17 09:15:35;;;;;;;6.32;3.10;;;22.50;21.10;;;;;;5116562;27;20100;-59
2022/04/17 09:18:19;;;;;;;4.90;2.45;;;21.70;21.60;;;;;;5135246;27;20409;-66
2022/04/17 09:20:46;;;;;;;4.57;2.83;;;20.70;22.20;;;;;;5117506;27;20125;-63
2022/04/17 09:23:12;;;;;;;5.10;2.50;;;19.90;23.00;;;;;;5136095;27;20387;-67
2022/04/17 09:25:38;;;;;;;3.97;2.25;;;19.40;23.70;;;;;;5135863;27;20027;-62
2022/04/17 09:28:06;;;;;;;4.85;2.90;;;19.00;24.30;;;;;;5135388;27;20038;-62
2022/04/17 09:30:34;;;;;;;4.78;2.63;;;18.60;24.70;;;;;;5114782;27;20019;-63
2022/04/17 09:33:09;;;;;;;7.13;2.65;;;18.40;25.00;;;;;;5135388;27;20035;-63
2022/04/17 09:35:35;;;;;;;5.72;2.70;;;18.20;25.50;;;;;;5135481;27;20487;-62
2022/04/17 09:38:05;;;;;;;5.32;2.53;;;18.00;25.50;;;;;;5134430;27;20055;-63
2022/04/17 09:40:31;;;;;;;5.35;2.50;;;17.60;25.70;;;;;;5133935;27;20016;-62
2022/04/17 09:43:13;;;;;;;5.88;2.60;;;17.30;25.70;;;;;;5117106;27;20470;-61
2022/04/17 09:45:59;;;;;;;5.32;2.70;;;16.90;25.90;;;;;;5099704;27;20099;-62
2022/04/17 09:48:29;;;;;;;6.53;2.85;;;16.80;26.20;;;;;;5134824;27;20035;-64
2022/04/17 09:50:55;;;;;;;6.45;3.33;;;16.80;26.30;;;;;;5116619;27;20490;-62
2022/04/17 09:53:34;;;;;;;6.20;3.17;;;16.80;26.30;;;;;;5135151;27;20103;-67
2022/04/17 09:56:12;;;;;;;7.70;4.72;;;16.90;26.60;;;;;;5116405;27;20220;-61
2022/04/17 09:58:42;;;;;;;4.55;2.90;;;16.50;26.70;;;;;;5116299;27;20023;-61
2022/04/17 10:01:08;;;;;;;5.05;2.70;;;16.20;26.80;;;;;;5133464;27;20046;-63
2022/04/17 10:03:39;;;;;;;5.95;2.83;;;16.30;27.10;;;;;;5130933;27;20464;-64
2022/04/17 10:06:06;;;;;;;5.55;2.70;;;16.20;27.50;;;;;;5133104;27;20026;-64
2022/04/17 10:08:33;;;;;;;8.30;2.80;;;16.00;27.70;;;;;;5114128;27;20046;-62
2022/04/17 10:11:01;;;;;;;4.35;3.10;;;16.00;27.90;;;;;;5116090;27;20113;-61
2022/04/17 10:13:27;;;;;;;28.00;18.23;;;15.90;27.90;;;;;;5115906;27;20361;-62
2022/04/17 10:15:58;;;;;;;41.95;31.52;;;15.90;28.10;;;;;;5135050;27;20019;-62
2022/04/17 10:18:27;;;;;;;9.18;5.35;;;15.70;27.90;;;;;;5134327;27;20105;-64
2022/04/17 10:20:55;;;;;;;6.40;3.28;;;15.60;28.20;;;;;;5115658;27;20494;-61
2022/04/17 10:23:26;;;;;;;6.80;2.70;;;15.40;28.70;;;;;;5116131;27;20093;-65
2022/04/17 10:25:57;;;;;;;10.73;3.83;;;15.40;28.90;;;;;;5116456;27;20031;-62
2022/04/17 10:28:26;;;;;;;4.97;2.97;;;15.60;28.80;;;;;;5115496;27;20164;-62
2022/04/17 10:31:10;;;;;;;5.90;3.08;;;15.60;28.50;;;;;;5133363;27;20025;-62
2022/04/17 10:33:46;;;;;;;5.53;3.00;;;15.40;28.80;;;;;;5113770;27;20023;-62
2022/04/17 10:36:18;;;;;;;6.72;2.90;;;15.40;28.90;;;;;;5133888;27;20031;-62
2022/04/17 10:39:17;;;;;;;4.82;2.90;;;15.20;27.90;;;;;;5133650;27;20023;-62
2022/04/17 10:41:43;;;;;;;4.18;2.75;;;15.20;28.90;;;;;;5133668;27;20043;-62
2022/04/17 10:44:11;;;;;;;5.25;2.83;;;15.50;28.00;;;;;;5133272;27;20107;-62
2022/04/17 10:47:04;;;;;;;4.63;2.97;;;15.70;27.90;;;;;;5133059;27;20065;-62
2022/04/17 10:49:30;;;;;;;5.57;2.88;;;15.80;27.90;;;;;;5128562;27;20188;-62
2022/04/17 10:51:58;;;;;;;6.05;3.53;;;15.70;28.00;;;;;;5131960;27;20499;-62
2022/04/17 10:54:24;;;;;;;4.97;3.28;;;15.80;28.10;;;;;;5133325;27;20019;-65
2022/04/17 10:56:56;;;;;;;5.68;3.05;;;15.70;28.30;;;;;;5132876;27;20035;-62
2022/04/17 10:59:27;;;;;;;7.47;3.33;;;15.60;28.80;;;;;;5133098;27;20019;-62
2022/04/17 11:01:55;;;;;;;8.20;3.95;;;15.60;28.90;;;;;;5133915;27;20023;-62
2022/04/17 11:05:01;;;;;;;8.38;3.70;;;15.60;28.40;;;;;;5115585;27;20019;-61
2022/04/17 11:07:31;;;;;;;7.30;3.75;;;15.80;28.40;;;;;;5110849;27;20126;-61
2022/04/17 11:10:17;;;;;;;5.60;3.30;;;16.00;27.90;;;;;;5133842;27;20466;-61
2022/04/17 11:12:51;;;;;;;6.93;4.35;;;15.90;27.80;;;;;;5133366;27;20476;-61
2022/04/17 11:15:17;;;;;;;6.70;3.60;;;15.50;27.80;;;;;;5134253;27;20057;-62
2022/04/17 11:17:42;;;;;;;8.40;3.25;;;15.40;27.80;;;;;;5132864;27;20305;-61
2022/04/17 11:20:09;;;;;;;4.50;2.65;;;15.50;27.20;;;;;;5134093;27;20051;-62
2022/04/17 11:22:37;;;;;;;6.43;3.88;;;15.70;27.20;;;;;;5133216;27;20101;-62
2022/04/17 11:25:10;;;;;;;5.55;2.72;;;15.80;27.00;;;;;;5133878;27;20027;-62
2022/04/17 11:27:42;;;;;;;10.10;3.40;;;15.80;27.30;;;;;;5114719;27;20417;-62
2022/04/17 11:30:30;;;;;;;6.45;3.65;;;15.90;27.30;;;;;;5133370;27;20023;-61
2022/04/17 11:32:56;;;;;;;6.55;3.20;;;15.90;27.00;;;;;;5116435;27;20027;-62
2022/04/17 11:35:26;;;;;;;9.02;4.53;;;15.70;27.20;;;;;;5115091;27;20481;-62
2022/04/17 11:38:04;;;;;;;6.90;3.30;;;15.90;27.20;;;;;;5133435;27;20431;-63
2022/04/17 11:40:32;;;;;;;4.85;2.25;;;16.00;26.60;;;;;;5113900;27;20026;-63
2022/04/17 11:43:08;;;;;;;13.70;9.82;;;16.10;26.40;;;;;;5133554;27;20015;-63
2022/04/17 11:45:34;;;;;;;8.30;5.18;;;15.90;26.50;;;;;;5132605;27;20023;-62
2022/04/17 11:48:06;;;;;;;8.70;4.50;;;15.90;26.70;;;;;;5133046;27;20023;-62
2022/04/17 11:50:32;;;;;;;6.65;4.30;;;15.80;26.50;;;;;;5132133;27;20404;-62
2022/04/17 11:53:01;;;;;;;8.88;3.60;;;15.80;26.70;;;;;;5115337;27;20019;-62
2022/04/17 11:55:29;;;;;;;10.00;5.22;;;15.80;27.00;;;;;;5133294;27;20043;-62
2022/04/17 11:57:56;;;;;;;5.63;4.00;;;16.10;27.20;;;;;;5114497;27;20023;-61
2022/04/17 12:00:22;;;;;;;7.93;2.88;;;16.30;26.70;;;;;;5132543;27;20139;-61
2022/04/17 12:02:55;;;;;;;4.85;2.80;;;16.40;26.50;;;;;;5131867;27;20031;-61
2022/04/17 12:05:21;;;;;;;5.43;2.88;;;16.50;26.10;;;;;;5132646;27;20387;-61
2022/04/17 12:08:06;;;;;;;6.10;3.08;;;16.30;25.60;;;;;;5113395;27;20039;-62
2022/04/17 12:10:34;;;;;;;4.28;2.83;;;16.10;26.10;;;;;;5113598;27;20070;-62
2022/04/17 12:13:15;;;;;;;5.32;2.45;;;16.30;26.40;;;;;;5113951;27;20480;-62
2022/04/17 12:15:41;;;;;;;6.20;3.30;;;16.30;26.30;;;;;;5113916;27;20039;-62
2022/04/17 12:18:06;;;;;;;5.90;3.17;;;16.50;26.10;;;;;;5132351;27;20387;-62
2022/04/17 12:20:32;;;;;;;5.50;2.90;;;16.60;26.00;;;;;;5131517;27;20034;-62
2022/04/17 12:22:58;;;;;;;28.80;19.63;;;16.50;25.90;;;;;;5113948;27;20015;-62
2022/04/17 12:25:26;;;;;;;10.63;8.43;;;16.40;25.90;;;;;;5114305;27;20019;-62
2022/04/17 12:27:55;;;;;;;8.20;4.07;;;16.40;26.20;;;;;;5113193;27;20038;-61
2022/04/17 12:30:24;;;;;;;7.50;5.38;;;16.60;26.10;;;;;;5131992;27;20019;-61
2022/04/17 12:32:51;;;;;;;6.85;3.67;;;16.60;26.00;;;;;;5131851;27;20153;-62
2022/04/17 12:35:26;;;;;;;5.82;3.13;;;16.30;26.30;;;;;;5132465;27;20026;-61
2022/04/17 12:38:02;;;;;;;8.38;3.83;;;16.20;26.50;;;;;;5131575;27;20060;-63
2022/04/17 12:40:29;;;;;;;6.75;3.95;;;16.30;26.40;;;;;;5131988;27;20037;-61
2022/04/17 12:43:14;;;;;;;6.25;2.97;;;16.40;26.70;;;;;;5113852;28;20019;-61
2022/04/17 12:45:55;;;;;;;3.97;2.10;;;16.50;26.40;;;;;;5112951;28;20030;-62
2022/04/17 12:48:33;;;;;;;5.55;3.50;;;16.60;26.40;;;;;;5131910;27;20111;-62
2022/04/17 12:51:04;;;;;;;4.82;2.95;;;16.70;26.30;;;;;;5131947;28;20023;-62
2022/04/17 12:53:39;;;;;;;6.20;3.17;;;16.60;26.10;;;;;;5113914;28;20499;-62
2022/04/17 12:56:06;;;;;;;5.80;3.20;;;16.80;26.10;;;;;;5132505;28;20015;-62
2022/04/17 12:58:53;;;;;;;4.75;2.47;;;16.90;26.00;;;;;;5131829;28;20027;-62
2022/04/17 13:01:27;;;;;;;7.75;3.22;;;16.90;25.90;;;;;;5131963;27;20172;-62
2022/04/17 13:04:16;;;;;;;5.22;3.40;;;16.60;26.10;;;;;;5131539;28;20138;-62
2022/04/17 13:06:43;;;;;;;11.93;5.78;;;16.40;26.00;;;;;;5112592;28;20039;-61
2022/04/17 13:09:13;;;;;;;4.18;2.40;;;16.50;26.40;;;;;;5132276;27;20027;-61
2022/04/17 13:11:44;;;;;;;6.53;2.75;;;16.70;26.30;;;;;;5131193;27;20023;-61
2022/04/17 13:14:10;;;;;;;5.75;2.92;;;17.00;26.10;;;;;;5113470;28;20019;-61